sensor_id;sensor_type;location;lat;lon;timestamp;pressure;altitude;pressure_sealevel;temperature;humidity
8039;BME280;4062;49.844;8.120;2023-10-08T00:01:57;100081.03;;;17.27;59.24
8039;BME280;4062;49.844;8.120;2023-10-08T00:04:08;100081.03;;;17.27;59.19
8039;BME280;4062;49.844;8.120;2023-10-08T00:06:17;100078.38;;;17.27;59.03
8039;BME280;4062;49.844;8.120;2023-10-08T00:08:37;100065.91;;;17.28;58.98
8039;BME280;4062;49.844;8.120;2023-10-08T00:10:40;100073.03;;;17.27;59.10
8039;BME280;4062;49.844;8.120;2023-10-08T00:12:45;100088.13;;;17.28;59.09
8039;BME280;4062;49.844;8.120;2023-10-08T00:14:57;100095.28;;;17.28;58.92
8039;BME280;4062;49.844;8.120;2023-10-08T00:17:24;100091.72;;;17.27;59.09
8039;BME280;4062;49.844;8.120;2023-10-08T00:19:36;100090.88;;;17.27;59.22
8039;BME280;4062;49.844;8.120;2023-10-08T00:21:44;100086.38;;;17.27;59.16
8039;BME280;4062;49.844;8.120;2023-10-08T00:23:52;100094.41;;;17.27;59.13
8039;BME280;4062;49.844;8.120;2023-10-08T00:26:13;100093.53;;;17.27;58.91
8039;BME280;4062;49.844;8.120;2023-10-08T00:28:27;100085.47;;;17.28;59.16
8039;BME280;4062;49.844;8.120;2023-10-08T00:30:33;100086.38;;;17.27;59.16
8039;BME280;4062;49.844;8.120;2023-10-08T00:32:38;100097.06;;;17.27;58.96
8039;BME280;4062;49.844;8.120;2023-10-08T00:34:43;100090.88;;;17.27;59.28
8039;BME280;4062;49.844;8.120;2023-10-08T00:36:46;100093.53;;;17.27;59.10
8039;BME280;4062;49.844;8.120;2023-10-08T00:38:59;100093.53;;;17.27;59.09
8039;BME280;4062;49.844;8.120;2023-10-08T00:41:14;100088.19;;;17.27;59.00
8039;BME280;4062;49.844;8.120;2023-10-08T00:43:35;100084.66;;;17.26;58.86
8039;BME280;4062;49.844;8.120;2023-10-08T00:45:46;100085.53;;;17.27;58.93
8039;BME280;4062;49.844;8.120;2023-10-08T00:48:13;100078.38;;;17.27;59.00
8039;BME280;4062;49.844;8.120;2023-10-08T00:50:29;100077.53;;;17.27;58.98
8039;BME280;4062;49.844;8.120;2023-10-08T00:52:49;100065.09;;;17.26;59.14
8039;BME280;4062;49.844;8.120;2023-10-08T00:55:10;100073.91;;;17.28;58.92
8039;BME280;4062;49.844;8.120;2023-10-08T00:57:56;100064.16;;;17.27;59.05
8039;BME280;4062;49.844;8.120;2023-10-08T01:00:07;100064.16;;;17.27;58.99
8039;BME280;4062;49.844;8.120;2023-10-08T01:02:29;100061.50;;;17.27;59.26
8039;BME280;4062;49.844;8.120;2023-10-08T01:04:47;100062.34;;;17.27;58.86
8039;BME280;4062;49.844;8.120;2023-10-08T01:07:09;100061.53;;;17.25;58.95
8039;BME280;4062;49.844;8.120;2023-10-08T01:09:17;100059.75;;;17.26;58.92
8039;BME280;4062;49.844;8.120;2023-10-08T01:11:34;100058.88;;;17.25;58.86
8039;BME280;4062;49.844;8.120;2023-10-08T01:14:00;100058.81;;;17.27;59.15
8039;BME280;4062;49.844;8.120;2023-10-08T01:16:12;100049.06;;;17.26;58.97
8039;BME280;4062;49.844;8.120;2023-10-08T01:18:20;100051.75;;;17.26;58.83
8039;BME280;4062;49.844;8.120;2023-10-08T01:20:41;100054.41;;;17.26;58.86
8039;BME280;4062;49.844;8.120;2023-10-08T01:22:56;100045.50;;;17.25;59.11
8039;BME280;4062;49.844;8.120;2023-10-08T01:24:58;100043.72;;;17.26;58.93
8039;BME280;4062;49.844;8.120;2023-10-08T01:27:06;100042.81;;;17.27;59.16
8039;BME280;4062;49.844;8.120;2023-10-08T01:29:18;100040.13;;;17.27;59.03
8039;BME280;4062;49.844;8.120;2023-10-08T01:31:26;100041.06;;;17.26;58.98
8039;BME280;4062;49.844;8.120;2023-10-08T01:33:34;100037.50;;;17.25;59.17
8039;BME280;4062;49.844;8.120;2023-10-08T01:35:40;100036.56;;;17.26;59.12
8039;BME280;4062;49.844;8.120;2023-10-08T01:37:45;100035.72;;;17.26;59.13
8039;BME280;4062;49.844;8.120;2023-10-08T01:40:01;100033.06;;;17.26;59.11
8039;BME280;4062;49.844;8.120;2023-10-08T01:42:13;100027.72;;;17.26;59.20
8039;BME280;4062;49.844;8.120;2023-10-08T01:44:27;100032.13;;;17.27;59.17
8039;BME280;4062;49.844;8.120;2023-10-08T01:46:31;100029.44;;;17.27;58.90
8039;BME280;4062;49.844;8.120;2023-10-08T01:48:36;100018.81;;;17.25;59.13
8039;BME280;4062;49.844;8.120;2023-10-08T01:50:44;100026.78;;;17.27;58.95
8039;BME280;4062;49.844;8.120;2023-10-08T01:52:56;100027.72;;;17.26;58.91
8039;BME280;4062;49.844;8.120;2023-10-08T01:55:07;100034.78;;;17.27;58.97
8039;BME280;4062;49.844;8.120;2023-10-08T01:57:24;100032.16;;;17.25;59.20
8039;BME280;4062;49.844;8.120;2023-10-08T01:59:36;100033.06;;;17.26;59.03
8039;BME280;4062;49.844;8.120;2023-10-08T02:01:48;100026.81;;;17.25;59.03
8039;BME280;4062;49.844;8.120;2023-10-08T02:04:09;100030.38;;;17.26;59.14
8039;BME280;4062;49.844;8.120;2023-10-08T02:06:15;100026.81;;;17.25;59.16
8039;BME280;4062;49.844;8.120;2023-10-08T02:08:22;100038.38;;;17.26;59.00
8039;BME280;4062;49.844;8.120;2023-10-08T02:10:24;100053.53;;;17.25;58.99
8039;BME280;4062;49.844;8.120;2023-10-08T02:12:34;100055.34;;;17.25;58.89
8039;BME280;4062;49.844;8.120;2023-10-08T02:14:41;100055.34;;;17.25;59.17
8039;BME280;4062;49.844;8.120;2023-10-08T02:16:46;100056.16;;;17.27;58.98
8039;BME280;4062;49.844;8.120;2023-10-08T02:18:57;100056.19;;;17.25;59.13
8039;BME280;4062;49.844;8.120;2023-10-08T02:20:58;100058.81;;;17.27;59.19
8039;BME280;4062;49.844;8.120;2023-10-08T02:23:00;100057.09;;;17.26;59.13
8039;BME280;4062;49.844;8.120;2023-10-08T02:25:02;100053.53;;;17.25;59.04
8039;BME280;4062;49.844;8.120;2023-10-08T02:27:09;100056.19;;;17.25;59.03
8039;BME280;4062;49.844;8.120;2023-10-08T02:29:17;100052.66;;;17.25;58.94
8039;BME280;4062;49.844;8.120;2023-10-08T02:31:55;100056.19;;;17.25;59.01
8039;BME280;4062;49.844;8.120;2023-10-08T02:34:10;100054.41;;;17.26;59.19
8039;BME280;4062;49.844;8.120;2023-10-08T02:36:17;100053.53;;;17.25;59.24
8039;BME280;4062;49.844;8.120;2023-10-08T02:38:28;100045.50;;;17.25;59.12
8039;BME280;4062;49.844;8.120;2023-10-08T02:40:38;100042.84;;;17.25;59.07
8039;BME280;4062;49.844;8.120;2023-10-08T02:42:58;100048.19;;;17.25;59.11
8039;BME280;4062;49.844;8.120;2023-10-08T02:45:02;100042.84;;;17.25;59.17
8039;BME280;4062;49.844;8.120;2023-10-08T02:47:11;100045.50;;;17.25;59.17
8039;BME280;4062;49.844;8.120;2023-10-08T02:49:22;100033.09;;;17.24;59.17
8039;BME280;4062;49.844;8.120;2023-10-08T02:51:35;100031.31;;;17.25;59.11
8039;BME280;4062;49.844;8.120;2023-10-08T02:53:37;100034.84;;;17.25;58.91
8039;BME280;4062;49.844;8.120;2023-10-08T02:55:45;100033.97;;;17.25;59.24
8039;BME280;4062;49.844;8.120;2023-10-08T02:58:01;100029.50;;;17.25;59.13
8039;BME280;4062;49.844;8.120;2023-10-08T03:00:06;100023.28;;;17.25;59.11
8039;BME280;4062;49.844;8.120;2023-10-08T03:02:24;100023.28;;;17.25;58.83
8039;BME280;4062;49.844;8.120;2023-10-08T03:04:54;100023.28;;;17.25;58.93
8039;BME280;4062;49.844;8.120;2023-10-08T03:07:05;100023.28;;;17.25;58.95
8039;BME280;4062;49.844;8.120;2023-10-08T03:09:12;100023.28;;;17.25;59.21
8039;BME280;4062;49.844;8.120;2023-10-08T03:11:26;100018.81;;;17.25;59.11
8039;BME280;4062;49.844;8.120;2023-10-08T03:13:30;100018.81;;;17.25;59.21
8039;BME280;4062;49.844;8.120;2023-10-08T03:15:44;100020.63;;;17.25;59.01
8039;BME280;4062;49.844;8.120;2023-10-08T03:18:06;100014.34;;;17.26;59.11
8039;BME280;4062;49.844;8.120;2023-10-08T03:20:22;100024.16;;;17.25;59.10
8039;BME280;4062;49.844;8.120;2023-10-08T03:22:39;100023.28;;;17.25;59.20
8039;BME280;4062;49.844;8.120;2023-10-08T03:24:46;100035.72;;;17.26;59.13
8039;BME280;4062;49.844;8.120;2023-10-08T03:26:59;100031.31;;;17.25;58.94
8039;BME280;4062;49.844;8.120;2023-10-08T03:29:19;100031.31;;;17.25;59.17
8039;BME280;4062;49.844;8.120;2023-10-08T03:31:31;100035.72;;;17.26;59.03
8039;BME280;4062;49.844;8.120;2023-10-08T03:33:51;100045.50;;;17.25;59.21
8039;BME280;4062;49.844;8.120;2023-10-08T03:35:53;100047.31;;;17.25;59.15
8039;BME280;4062;49.844;8.120;2023-10-08T03:38:05;100050.94;;;17.24;59.15
8039;BME280;4062;49.844;8.120;2023-10-08T03:40:23;100063.34;;;17.25;59.19
8039;BME280;4062;49.844;8.120;2023-10-08T03:42:48;100066.03;;;17.25;58.75
8039;BME280;4062;49.844;8.120;2023-10-08T03:44:58;100062.47;;;17.24;59.18
8039;BME280;4062;49.844;8.120;2023-10-08T03:47:13;100058.00;;;17.25;59.17
8039;BME280;4062;49.844;8.120;2023-10-08T03:49:18;100066.88;;;17.25;58.99
8039;BME280;4062;49.844;8.120;2023-10-08T03:51:32;100065.13;;;17.24;59.02
8039;BME280;4062;49.844;8.120;2023-10-08T03:53:42;100070.44;;;17.26;59.14
8039;BME280;4062;49.844;8.120;2023-10-08T03:56:00;100062.47;;;17.24;58.88
8039;BME280;4062;49.844;8.120;2023-10-08T03:58:10;100071.38;;;17.25;59.17
8039;BME280;4062;49.844;8.120;2023-10-08T04:00:18;100071.38;;;17.25;58.95
8039;BME280;4062;49.844;8.120;2023-10-08T04:02:30;100076.72;;;17.25;59.01
8039;BME280;4062;49.844;8.120;2023-10-08T04:04:46;100071.38;;;17.25;58.96
8039;BME280;4062;49.844;8.120;2023-10-08T04:07:01;100078.44;;;17.26;59.05
8039;BME280;4062;49.844;8.120;2023-10-08T04:09:24;100084.72;;;17.25;59.01
8039;BME280;4062;49.844;8.120;2023-10-08T04:11:31;100087.38;;;17.25;59.23
8039;BME280;4062;49.844;8.120;2023-10-08T04:13:36;100088.25;;;17.25;59.13
8039;BME280;4062;49.844;8.120;2023-10-08T04:15:45;100083.84;;;17.24;59.06
8039;BME280;4062;49.844;8.120;2023-10-08T04:17:49;100087.38;;;17.25;58.93
8039;BME280;4062;49.844;8.120;2023-10-08T04:19:52;100087.38;;;17.25;59.00
8039;BME280;4062;49.844;8.120;2023-10-08T04:22:04;100084.72;;;17.25;59.14
8039;BME280;4062;49.844;8.120;2023-10-08T04:24:28;100089.16;;;17.24;59.01
8039;BME280;4062;49.844;8.120;2023-10-08T04:26:36;100082.03;;;17.25;59.15
8039;BME280;4062;49.844;8.120;2023-10-08T04:28:53;100075.81;;;17.24;59.13
8039;BME280;4062;49.844;8.120;2023-10-08T04:30:59;100077.63;;;17.24;59.32
8039;BME280;4062;49.844;8.120;2023-10-08T04:33:14;100069.63;;;17.24;59.02
8039;BME280;4062;49.844;8.120;2023-10-08T04:35:25;100071.38;;;17.25;59.14
8039;BME280;4062;49.844;8.120;2023-10-08T04:37:35;100066.09;;;17.23;59.13
8039;BME280;4062;49.844;8.120;2023-10-08T04:39:56;100060.69;;;17.25;59.24
8039;BME280;4062;49.844;8.120;2023-10-08T04:42:03;100060.69;;;17.25;59.17
8039;BME280;4062;49.844;8.120;2023-10-08T04:44:15;100060.69;;;17.25;59.07
8039;BME280;4062;49.844;8.120;2023-10-08T04:46:25;100060.69;;;17.25;58.89
8039;BME280;4062;49.844;8.120;2023-10-08T04:48:51;100064.28;;;17.24;59.21
8039;BME280;4062;49.844;8.120;2023-10-08T04:51:00;100070.47;;;17.24;59.02
8039;BME280;4062;49.844;8.120;2023-10-08T04:53:05;100069.63;;;17.24;58.96
8039;BME280;4062;49.844;8.120;2023-10-08T04:55:18;100074.03;;;17.25;59.12
8039;BME280;4062;49.844;8.120;2023-10-08T04:57:30;100078.50;;;17.24;59.19
8039;BME280;4062;49.844;8.120;2023-10-08T04:59:31;100089.16;;;17.24;59.02
8039;BME280;4062;49.844;8.120;2023-10-08T05:01:39;100084.72;;;17.25;58.86
8039;BME280;4062;49.844;8.120;2023-10-08T05:04:09;100086.50;;;17.24;59.02
8039;BME280;4062;49.844;8.120;2023-10-08T05:06:29;100095.41;;;17.25;59.05
8039;BME280;4062;49.844;8.120;2023-10-08T05:08:37;100096.25;;;17.25;59.11
8039;BME280;4062;49.844;8.120;2023-10-08T05:11:00;100093.66;;;17.24;59.25
8039;BME280;4062;49.844;8.120;2023-10-08T05:13:40;100093.66;;;17.24;58.96
8039;BME280;4062;49.844;8.120;2023-10-08T05:16:01;100096.31;;;17.24;59.05
8039;BME280;4062;49.844;8.120;2023-10-08T05:18:31;100093.66;;;17.24;59.02
8039;BME280;4062;49.844;8.120;2023-10-08T05:20:57;100091.84;;;17.24;58.98
8039;BME280;4062;49.844;8.120;2023-10-08T05:23:13;100087.47;;;17.23;59.34
8039;BME280;4062;49.844;8.120;2023-10-08T05:25:24;100089.16;;;17.24;59.25
8039;BME280;4062;49.844;8.120;2023-10-08T05:27:41;100096.31;;;17.24;59.21
8039;BME280;4062;49.844;8.120;2023-10-08T05:29:48;100090.06;;;17.25;59.21
8039;BME280;4062;49.844;8.120;2023-10-08T05:32:14;100080.31;;;17.24;59.09
8039;BME280;4062;49.844;8.120;2023-10-08T05:34:35;100082.97;;;17.24;59.07
8039;BME280;4062;49.844;8.120;2023-10-08T05:36:54;100086.50;;;17.24;59.09
8039;BME280;4062;49.844;8.120;2023-10-08T05:39:07;100082.13;;;17.23;59.24
8039;BME280;4062;49.844;8.120;2023-10-08T05:41:45;100090.13;;;17.23;59.11
8039;BME280;4062;49.844;8.120;2023-10-08T05:43:59;100091.00;;;17.24;59.11
8039;BME280;4062;49.844;8.120;2023-10-08T05:46:28;100080.31;;;17.24;59.21
8039;BME280;4062;49.844;8.120;2023-10-08T05:48:33;100084.72;;;17.25;59.18
8039;BME280;4062;49.844;8.120;2023-10-08T05:50:54;100088.31;;;17.24;59.19
8039;BME280;4062;49.844;8.120;2023-10-08T05:53:23;100076.78;;;17.23;58.98
8039;BME280;4062;49.844;8.120;2023-10-08T05:55:43;100079.44;;;17.23;59.01
8039;BME280;4062;49.844;8.120;2023-10-08T05:57:49;100079.44;;;17.23;59.07
8039;BME280;4062;49.844;8.120;2023-10-08T05:59:59;100073.16;;;17.24;58.98
8039;BME280;4062;49.844;8.120;2023-10-08T06:02:06;100062.53;;;17.23;59.10
8039;BME280;4062;49.844;8.120;2023-10-08T06:04:30;100069.63;;;17.24;59.02
8039;BME280;4062;49.844;8.120;2023-10-08T06:06:47;100058.09;;;17.23;59.21
8039;BME280;4062;49.844;8.120;2023-10-08T06:08:59;100063.44;;;17.23;58.99
8039;BME280;4062;49.844;8.120;2023-10-08T06:11:22;100068.78;;;17.23;59.19
8039;BME280;4062;49.844;8.120;2023-10-08T06:13:50;100072.28;;;17.24;59.32
8039;BME280;4062;49.844;8.120;2023-10-08T06:15:57;100076.78;;;17.23;59.25
8039;BME280;4062;49.844;8.120;2023-10-08T06:17:59;100080.31;;;17.24;59.01
8039;BME280;4062;49.844;8.120;2023-10-08T06:20:08;100098.16;;;17.23;59.06
8039;BME280;4062;49.844;8.120;2023-10-08T06:22:18;100095.47;;;17.23;59.18
8039;BME280;4062;49.844;8.120;2023-10-08T06:24:25;100099.00;;;17.24;59.07
8039;BME280;4062;49.844;8.120;2023-10-08T06:26:39;100110.59;;;17.23;59.01
8039;BME280;4062;49.844;8.120;2023-10-08T06:28:47;100116.84;;;17.23;59.05
8039;BME280;4062;49.844;8.120;2023-10-08T06:30:58;100126.63;;;17.23;59.00
8039;BME280;4062;49.844;8.120;2023-10-08T06:33:02;100133.72;;;17.24;59.21
8039;BME280;4062;49.844;8.120;2023-10-08T06:35:08;100131.03;;;17.24;59.21
8039;BME280;4062;49.844;8.120;2023-10-08T06:37:30;100143.53;;;17.23;59.20
8039;BME280;4062;49.844;8.120;2023-10-08T06:39:43;100150.59;;;17.24;59.15
8039;BME280;4062;49.844;8.120;2023-10-08T06:41:56;100151.56;;;17.23;59.00
8039;BME280;4062;49.844;8.120;2023-10-08T06:44:03;100154.22;;;17.23;59.19
8039;BME280;4062;49.844;8.120;2023-10-08T06:46:26;100155.06;;;17.24;59.12
8039;BME280;4062;49.844;8.120;2023-10-08T06:48:34;100157.75;;;17.24;59.26
8039;BME280;4062;49.844;8.120;2023-10-08T06:50:53;100155.06;;;17.24;58.98
8039;BME280;4062;49.844;8.120;2023-10-08T06:53:04;100170.25;;;17.23;59.12
8039;BME280;4062;49.844;8.120;2023-10-08T06:55:16;100176.44;;;17.24;59.14
8039;BME280;4062;49.844;8.120;2023-10-08T06:57:22;100162.22;;;17.23;59.32
8039;BME280;4062;49.844;8.120;2023-10-08T06:59:30;100176.44;;;17.24;59.19
8039;BME280;4062;49.844;8.120;2023-10-08T07:01:41;100171.97;;;17.24;59.05
8039;BME280;4062;49.844;8.120;2023-10-08T07:03:53;100174.63;;;17.24;59.15
8039;BME280;4062;49.844;8.120;2023-10-08T07:06:08;100171.97;;;17.24;59.21
8039;BME280;4062;49.844;8.120;2023-10-08T07:08:40;100183.59;;;17.23;59.02
8039;BME280;4062;49.844;8.120;2023-10-08T07:10:59;100182.63;;;17.24;59.00
8039;BME280;4062;49.844;8.120;2023-10-08T07:13:08;100179.13;;;17.24;59.04
8039;BME280;4062;49.844;8.120;2023-10-08T07:15:10;100184.44;;;17.24;59.08
8039;BME280;4062;49.844;8.120;2023-10-08T07:17:34;100176.44;;;17.24;59.17
8039;BME280;4062;49.844;8.120;2023-10-08T07:19:43;100176.44;;;17.24;59.01
8039;BME280;4062;49.844;8.120;2023-10-08T07:21:52;100168.44;;;17.24;59.06
8039;BME280;4062;49.844;8.120;2023-10-08T07:23:59;100172.91;;;17.23;59.19
8039;BME280;4062;49.844;8.120;2023-10-08T07:26:02;100171.09;;;17.24;59.04
8039;BME280;4062;49.844;8.120;2023-10-08T07:28:13;100179.13;;;17.24;59.08
8039;BME280;4062;49.844;8.120;2023-10-08T07:30:27;100184.44;;;17.24;59.07
8039;BME280;4062;49.844;8.120;2023-10-08T07:32:33;100188.94;;;17.23;59.21
8039;BME280;4062;49.844;8.120;2023-10-08T07:34:59;100190.66;;;17.24;59.15
8039;BME280;4062;49.844;8.120;2023-10-08T07:37:27;100197.81;;;17.24;59.08
8039;BME280;4062;49.844;8.120;2023-10-08T07:39:31;100194.28;;;17.23;58.99
8039;BME280;4062;49.844;8.120;2023-10-08T07:41:40;100190.66;;;17.24;59.05
8039;BME280;4062;49.844;8.120;2023-10-08T07:43:44;100187.13;;;17.24;59.21
8039;BME280;4062;49.844;8.120;2023-10-08T07:45:57;100192.47;;;17.24;59.17
8039;BME280;4062;49.844;8.120;2023-10-08T07:48:07;100200.47;;;17.24;59.21
8039;BME280;4062;49.844;8.120;2023-10-08T07:50:11;100205.81;;;17.24;59.02
8039;BME280;4062;49.844;8.120;2023-10-08T07:52:40;100203.16;;;17.24;59.24
8039;BME280;4062;49.844;8.120;2023-10-08T07:54:53;100215.56;;;17.25;59.05
8039;BME280;4062;49.844;8.120;2023-10-08T07:57:06;100216.50;;;17.24;59.04
8039;BME280;4062;49.844;8.120;2023-10-08T07:59:28;100205.81;;;17.24;59.08
8039;BME280;4062;49.844;8.120;2023-10-08T08:01:29;100212.97;;;17.23;58.94
8039;BME280;4062;49.844;8.120;2023-10-08T08:03:37;100219.16;;;17.24;59.26
8039;BME280;4062;49.844;8.120;2023-10-08T08:05:41;100217.34;;;17.24;59.02
8039;BME280;4062;49.844;8.120;2023-10-08T08:07:55;100222.75;;;17.23;59.16
8039;BME280;4062;49.844;8.120;2023-10-08T08:10:12;100220.09;;;17.23;59.18
8039;BME280;4062;49.844;8.120;2023-10-08T08:12:20;100223.66;;;17.23;59.13
8039;BME280;4062;49.844;8.120;2023-10-08T08:14:25;100220.97;;;17.23;59.06
8039;BME280;4062;49.844;8.120;2023-10-08T08:16:41;100218.31;;;17.23;59.21
8039;BME280;4062;49.844;8.120;2023-10-08T08:18:49;100218.31;;;17.23;59.13
8039;BME280;4062;49.844;8.120;2023-10-08T08:21:00;100225.38;;;17.24;59.17
8039;BME280;4062;49.844;8.120;2023-10-08T08:23:03;100229.84;;;17.24;58.94
8039;BME280;4062;49.844;8.120;2023-10-08T08:25:12;100224.50;;;17.24;58.99
8039;BME280;4062;49.844;8.120;2023-10-08T08:27:17;100211.16;;;17.24;59.09
8039;BME280;4062;49.844;8.120;2023-10-08T08:29:36;100216.50;;;17.24;59.06
8039;BME280;4062;49.844;8.120;2023-10-08T08:32:01;100211.16;;;17.24;58.99
8039;BME280;4062;49.844;8.120;2023-10-08T08:34:07;100218.31;;;17.23;59.22
8039;BME280;4062;49.844;8.120;2023-10-08T08:36:31;100230.72;;;17.24;59.06
8039;BME280;4062;49.844;8.120;2023-10-08T08:38:42;100225.44;;;17.23;59.05
8039;BME280;4062;49.844;8.120;2023-10-08T08:40:52;100220.09;;;17.23;59.09
8039;BME280;4062;49.844;8.120;2023-10-08T08:43:21;100220.97;;;17.23;59.08
8039;BME280;4062;49.844;8.120;2023-10-08T08:45:26;100220.97;;;17.23;59.21
8039;BME280;4062;49.844;8.120;2023-10-08T08:47:36;100236.13;;;17.23;58.87
8039;BME280;4062;49.844;8.120;2023-10-08T08:49:46;100221.84;;;17.24;59.21
8039;BME280;4062;49.844;8.120;2023-10-08T08:51:56;100223.66;;;17.23;59.21
8039;BME280;4062;49.844;8.120;2023-10-08T08:54:11;100238.78;;;17.23;59.01
8039;BME280;4062;49.844;8.120;2023-10-08T08:56:22;100220.09;;;17.23;59.25
8039;BME280;4062;49.844;8.120;2023-10-08T08:58:31;100223.66;;;17.23;59.04
8039;BME280;4062;49.844;8.120;2023-10-08T09:00:39;100228.03;;;17.24;58.86
8039;BME280;4062;49.844;8.120;2023-10-08T09:02:52;100234.34;;;17.23;59.04
8039;BME280;4062;49.844;8.120;2023-10-08T09:05:02;100245.88;;;17.24;59.00
8039;BME280;4062;49.844;8.120;2023-10-08T09:07:15;100248.53;;;17.24;59.01
8039;BME280;4062;49.844;8.120;2023-10-08T09:09:22;100243.22;;;17.24;59.14
8039;BME280;4062;49.844;8.120;2023-10-08T09:11:30;100226.31;;;17.23;58.98
8039;BME280;4062;49.844;8.120;2023-10-08T09:13:45;100216.50;;;17.24;59.14
8039;BME280;4062;49.844;8.120;2023-10-08T09:15:50;100211.16;;;17.24;59.01
8039;BME280;4062;49.844;8.120;2023-10-08T09:17:54;100215.66;;;17.23;59.01
8039;BME280;4062;49.844;8.120;2023-10-08T09:19:59;100227.19;;;17.24;59.14
8039;BME280;4062;49.844;8.120;2023-10-08T09:22:11;100232.53;;;17.24;59.05
8039;BME280;4062;49.844;8.120;2023-10-08T09:24:23;100234.34;;;17.23;59.05
8039;BME280;4062;49.844;8.120;2023-10-08T09:26:25;100230.78;;;17.23;59.20
8039;BME280;4062;49.844;8.120;2023-10-08T09:28:40;100224.50;;;17.24;59.24
8039;BME280;4062;49.844;8.120;2023-10-08T09:30:43;100215.66;;;17.23;58.93
8039;BME280;4062;49.844;8.120;2023-10-08T09:32:57;100218.31;;;17.23;59.07
8039;BME280;4062;49.844;8.120;2023-10-08T09:35:10;100228.03;;;17.24;59.15
8039;BME280;4062;49.844;8.120;2023-10-08T09:37:16;100229.00;;;17.23;59.17
8039;BME280;4062;49.844;8.120;2023-10-08T09:39:18;100239.69;;;17.23;58.92
8039;BME280;4062;49.844;8.120;2023-10-08T09:41:32;100235.19;;;17.24;59.02
8039;BME280;4062;49.844;8.120;2023-10-08T09:43:35;100235.19;;;17.24;59.15
8039;BME280;4062;49.844;8.120;2023-10-08T09:45:47;100240.53;;;17.24;59.13
8039;BME280;4062;49.844;8.120;2023-10-08T09:47:56;100242.28;;;17.25;58.99
8039;BME280;4062;49.844;8.120;2023-10-08T09:50:07;100240.53;;;17.24;58.99
8039;BME280;4062;49.844;8.120;2023-10-08T09:52:10;100245.03;;;17.23;59.06
8039;BME280;4062;49.844;8.120;2023-10-08T09:54:30;100237.00;;;17.23;59.21
8039;BME280;4062;49.844;8.120;2023-10-08T09:56:46;100238.72;;;17.24;59.00
8039;BME280;4062;49.844;8.120;2023-10-08T09:59:01;100230.72;;;17.24;59.18
8039;BME280;4062;49.844;8.120;2023-10-08T10:01:11;100220.03;;;17.24;59.01
8039;BME280;4062;49.844;8.120;2023-10-08T10:03:41;100224.50;;;17.24;59.13
8039;BME280;4062;49.844;8.120;2023-10-08T10:06:02;100216.50;;;17.24;59.06
8039;BME280;4062;49.844;8.120;2023-10-08T10:08:14;100222.69;;;17.24;59.00
8039;BME280;4062;49.844;8.120;2023-10-08T10:10:30;100219.16;;;17.24;59.13
8039;BME280;4062;49.844;8.120;2023-10-08T10:12:40;100218.25;;;17.25;59.14
8039;BME280;4062;49.844;8.120;2023-10-08T10:14:53;100225.38;;;17.24;58.96
8039;BME280;4062;49.844;8.120;2023-10-08T10:17:12;100219.16;;;17.24;59.00
8039;BME280;4062;49.844;8.120;2023-10-08T10:19:26;100222.69;;;17.24;59.20
8039;BME280;4062;49.844;8.120;2023-10-08T10:21:33;100217.34;;;17.24;59.18
8039;BME280;4062;49.844;8.120;2023-10-08T10:23:48;100210.31;;;17.23;58.96
8039;BME280;4062;49.844;8.120;2023-10-08T10:26:01;100218.25;;;17.25;59.20
8039;BME280;4062;49.844;8.120;2023-10-08T10:30:16;100229.00;;;17.23;59.01
8039;BME280;4062;49.844;8.120;2023-10-08T10:32:29;100232.53;;;17.24;59.11
8039;BME280;4062;49.844;8.120;2023-10-08T10:34:54;100238.72;;;17.24;59.20
8039;BME280;4062;49.844;8.120;2023-10-08T10:36:58;100235.19;;;17.24;59.18
8039;BME280;4062;49.844;8.120;2023-10-08T10:39:36;100230.72;;;17.24;59.17
8039;BME280;4062;49.844;8.120;2023-10-08T10:41:48;100234.28;;;17.25;59.05
8039;BME280;4062;49.844;8.120;2023-10-08T10:43:53;100244.06;;;17.24;59.12
8039;BME280;4062;49.844;8.120;2023-10-08T10:46:06;100244.06;;;17.24;58.94
8039;BME280;4062;49.844;8.120;2023-10-08T10:48:30;100238.72;;;17.24;58.95
8039;BME280;4062;49.844;8.120;2023-10-08T10:50:57;100239.59;;;17.25;59.13
8039;BME280;4062;49.844;8.120;2023-10-08T10:53:08;100232.53;;;17.24;59.20
8039;BME280;4062;49.844;8.120;2023-10-08T10:55:17;100234.34;;;17.23;59.08
8039;BME280;4062;49.844;8.120;2023-10-08T10:57:33;100236.94;;;17.25;58.95
8039;BME280;4062;49.844;8.120;2023-10-08T10:59:49;100233.38;;;17.24;59.11
8039;BME280;4062;49.844;8.120;2023-10-08T11:02:07;100240.53;;;17.24;59.04
8039;BME280;4062;49.844;8.120;2023-10-08T11:04:32;100242.34;;;17.23;59.19
8039;BME280;4062;49.844;8.120;2023-10-08T11:06:50;100241.38;;;17.24;58.85
8039;BME280;4062;49.844;8.120;2023-10-08T11:09:07;100237.88;;;17.24;59.02
8039;BME280;4062;49.844;8.120;2023-10-08T11:11:30;100235.19;;;17.24;59.19
8039;BME280;4062;49.844;8.120;2023-10-08T11:13:37;100236.94;;;17.25;59.15
8039;BME280;4062;49.844;8.120;2023-10-08T11:16:04;100240.53;;;17.24;59.14
8039;BME280;4062;49.844;8.120;2023-10-08T11:18:13;100244.06;;;17.24;59.23
8039;BME280;4062;49.844;8.120;2023-10-08T11:20:34;100256.56;;;17.24;59.19
8039;BME280;4062;49.844;8.120;2023-10-08T11:22:41;100249.41;;;17.24;59.18
8039;BME280;4062;49.844;8.120;2023-10-08T11:24:49;100250.38;;;17.23;59.13
8039;BME280;4062;49.844;8.120;2023-10-08T11:27:01;100250.38;;;17.23;59.05
8039;BME280;4062;49.844;8.120;2023-10-08T11:29:18;100252.06;;;17.24;59.12
8039;BME280;4062;49.844;8.120;2023-10-08T11:31:32;100252.97;;;17.25;59.05
8039;BME280;4062;49.844;8.120;2023-10-08T11:33:42;100251.22;;;17.24;59.20
8039;BME280;4062;49.844;8.120;2023-10-08T11:36:02;100252.06;;;17.24;58.96
8039;BME280;4062;49.844;8.120;2023-10-08T11:38:45;100249.41;;;17.24;59.18
8039;BME280;4062;49.844;8.120;2023-10-08T11:41:08;100241.38;;;17.24;59.15
8039;BME280;4062;49.844;8.120;2023-10-08T11:43:29;100245.81;;;17.25;59.17
8039;BME280;4062;49.844;8.120;2023-10-08T11:45:30;100232.53;;;17.24;59.01
8039;BME280;4062;49.844;8.120;2023-10-08T11:47:42;100235.19;;;17.24;59.18
8039;BME280;4062;49.844;8.120;2023-10-08T11:50:03;100233.38;;;17.24;58.98
8039;BME280;4062;49.844;8.120;2023-10-08T11:52:21;100234.28;;;17.25;58.78
8039;BME280;4062;49.844;8.120;2023-10-08T11:54:30;100226.31;;;17.23;59.12
8039;BME280;4062;49.844;8.120;2023-10-08T11:56:41;100235.19;;;17.24;59.14